createdAt,value
2018-06-22T00:02:12.518Z,1.87
2018-06-22T00:04:40.865Z,2.40
2018-06-22T00:07:10.639Z,1.60
2018-06-22T00:09:39.060Z,2.33
2018-06-22T00:12:07.689Z,2.77
2018-06-22T00:14:36.188Z,2.37
2018-06-22T00:17:04.634Z,2.30
2018-06-22T00:19:34.116Z,2.20
2018-06-22T00:22:02.551Z,2.70
2018-06-22T00:24:31.025Z,2.00
2018-06-22T00:26:59.519Z,2.07
2018-06-22T00:29:27.925Z,3.07
2018-06-22T00:31:56.413Z,3.03
2018-06-22T00:34:25.645Z,2.80
2018-06-22T00:36:54.024Z,1.90
2018-06-22T00:39:22.532Z,2.27
2018-06-22T00:41:51.023Z,2.27
2018-06-22T00:44:19.431Z,2.83
2018-06-22T00:46:47.912Z,2.07
2018-06-22T00:49:17.522Z,2.43
2018-06-22T00:51:45.940Z,2.10
2018-06-22T00:54:17.559Z,2.13
2018-06-22T00:56:46.543Z,3.73
2018-06-22T00:59:14.954Z,2.90
2018-06-22T01:01:43.426Z,2.30
2018-06-22T01:04:11.850Z,2.57
2018-06-22T01:06:40.416Z,3.43
2018-06-22T01:09:10.845Z,1.80
2018-06-22T01:11:40.864Z,2.70
2018-06-22T01:14:09.888Z,2.80
2018-06-22T01:16:38.477Z,2.10
2018-06-22T01:19:07.695Z,2.80
2018-06-22T01:21:37.286Z,3.00
2018-06-22T01:24:06.343Z,2.50
2018-06-22T01:26:36.301Z,2.50
2018-06-22T01:29:08.974Z,2.80
2018-06-22T01:31:37.935Z,2.90
2018-06-22T01:34:06.712Z,2.37
2018-06-22T01:36:35.406Z,2.50
2018-06-22T01:39:05.622Z,2.90
2018-06-22T01:41:34.534Z,3.40
2018-06-22T01:44:03.026Z,2.00
2018-06-22T01:46:31.497Z,1.80
2018-06-22T01:48:59.922Z,3.07
2018-06-22T01:51:28.627Z,2.63
2018-06-22T01:53:57.061Z,2.03
2018-06-22T01:56:26.518Z,1.67
2018-06-22T01:58:55.240Z,2.53
2018-06-22T02:01:23.599Z,2.37
2018-06-22T02:03:52.221Z,2.20
2018-06-22T02:06:21.484Z,3.20
2018-06-22T02:08:50.132Z,3.20
2018-06-22T02:11:18.528Z,2.87
2018-06-22T02:13:47.748Z,2.77
2018-06-22T02:16:16.113Z,2.47
2018-06-22T02:18:44.578Z,2.27
2018-06-22T02:21:13.289Z,2.50
2018-06-22T02:23:42.850Z,2.40
2018-06-22T02:26:13.710Z,2.07
2018-06-22T02:28:42.636Z,2.40
2018-06-22T02:31:13.443Z,2.13
2018-06-22T02:33:41.923Z,2.90
2018-06-22T02:36:10.555Z,2.67
2018-06-22T02:38:39.015Z,2.63
2018-06-22T02:41:07.470Z,2.13
2018-06-22T02:43:36.405Z,2.17
2018-06-22T02:46:05.052Z,3.47
2018-06-22T02:48:34.990Z,3.13
2018-06-22T02:51:04.335Z,2.40
2018-06-22T02:53:32.794Z,2.40
2018-06-22T02:56:01.156Z,2.33
2018-06-22T02:58:29.584Z,2.20
2018-06-22T03:00:58.083Z,2.67
2018-06-22T03:03:26.626Z,2.70
2018-06-22T03:05:55.051Z,3.83
2018-06-22T03:08:23.415Z,2.67
2018-06-22T03:10:51.997Z,2.57
2018-06-22T03:13:20.377Z,2.90
2018-06-22T03:15:48.903Z,2.27
2018-06-22T03:18:17.996Z,3.70
2018-06-22T03:20:47.092Z,2.57
2018-06-22T03:23:15.481Z,1.80
2018-06-22T03:25:44.051Z,3.33
2018-06-22T03:28:12.718Z,3.03
2018-06-22T03:30:41.375Z,2.93
2018-06-22T03:33:10.221Z,4.70
2018-06-22T03:35:38.843Z,3.33
2018-06-22T03:38:07.316Z,3.57
2018-06-22T03:40:35.935Z,3.27
2018-06-22T03:43:04.906Z,3.30
2018-06-22T03:45:33.931Z,3.90
2018-06-22T03:48:02.568Z,3.17
2018-06-22T03:50:31.282Z,3.77
2018-06-22T03:53:00.341Z,4.53
2018-06-22T03:55:28.763Z,3.00
2018-06-22T03:57:57.224Z,3.90
2018-06-22T04:00:25.782Z,3.73
2018-06-22T04:02:56.079Z,3.07
2018-06-22T04:05:25.470Z,3.50
2018-06-22T04:07:53.843Z,3.87
2018-06-22T04:10:22.574Z,4.20
2018-06-22T04:12:51.111Z,2.83
2018-06-22T04:15:19.587Z,3.37
2018-06-22T04:17:50.733Z,2.57
2018-06-22T04:20:20.759Z,2.70
2018-06-22T04:22:49.860Z,3.80
2018-06-22T04:25:20.070Z,4.27
2018-06-22T04:27:49.899Z,4.23
2018-06-22T04:30:18.984Z,3.23
2018-06-22T04:32:48.335Z,3.40
2018-06-22T04:35:17.008Z,4.60
2018-06-22T04:37:45.637Z,3.03
2018-06-22T04:40:14.413Z,3.43
2018-06-22T04:42:43.624Z,3.47
2018-06-22T04:45:11.987Z,3.00
2018-06-22T04:47:40.502Z,3.73
2018-06-22T04:50:09.008Z,3.80
2018-06-22T04:52:37.461Z,3.63
2018-06-22T04:55:05.992Z,2.40
2018-06-22T04:57:34.341Z,3.80
2018-06-22T05:00:02.794Z,5.23
2018-06-22T05:02:31.281Z,2.73
2018-06-22T05:04:59.729Z,3.53
2018-06-22T05:07:28.619Z,2.70
2018-06-22T05:09:57.066Z,3.03
2018-06-22T05:12:25.653Z,3.10
2018-06-22T05:14:54.119Z,3.07
2018-06-22T05:17:22.948Z,3.57
2018-06-22T05:19:52.170Z,2.70
2018-06-22T05:22:20.696Z,4.20
2018-06-22T05:24:52.679Z,3.47
2018-06-22T05:27:21.033Z,3.80
2018-06-22T05:29:49.775Z,3.70
2018-06-22T05:32:18.425Z,3.97
2018-06-22T05:34:47.737Z,3.87
2018-06-22T05:37:16.224Z,3.83
2018-06-22T05:39:44.688Z,3.47
2018-06-22T05:42:13.123Z,3.80
2018-06-22T05:44:41.601Z,3.70
2018-06-22T05:47:10.266Z,3.73
2018-06-22T05:49:38.702Z,3.13
2018-06-22T05:52:07.377Z,3.37
2018-06-22T05:54:36.119Z,3.50
2018-06-22T05:57:05.344Z,3.20
2018-06-22T05:59:34.106Z,3.83
2018-06-22T06:02:03.264Z,3.87
2018-06-22T06:04:31.994Z,4.37
2018-06-22T06:07:00.433Z,4.53
2018-06-22T06:09:28.909Z,4.13
2018-06-22T06:11:57.392Z,4.10
2018-06-22T06:14:29.351Z,3.23
2018-06-22T06:17:00.020Z,5.33
2018-06-22T06:19:31.532Z,4.00
2018-06-22T06:22:00.057Z,4.93
2018-06-22T06:27:25.981Z,4.97
2018-06-22T06:29:54.464Z,5.60
2018-06-22T06:32:22.907Z,4.83
2018-06-22T06:34:56.446Z,4.37
2018-06-22T06:37:25.006Z,4.90
2018-06-22T06:39:54.107Z,4.40
2018-06-22T06:42:23.592Z,5.10
2018-06-22T06:44:52.439Z,6.50
2018-06-22T06:47:21.832Z,5.57
2018-06-22T06:49:50.298Z,5.93
2018-06-22T06:52:20.235Z,5.33
2018-06-22T06:54:49.063Z,3.90
2018-06-22T06:57:19.659Z,4.17
2018-06-22T06:59:48.081Z,5.30
2018-06-22T07:02:17.392Z,4.83
2018-06-22T07:04:46.410Z,3.70
2018-06-22T07:07:15.212Z,5.27
2018-06-22T07:09:45.250Z,4.50
2018-06-22T07:12:16.273Z,4.80
2018-06-22T07:14:47.230Z,4.40
2018-06-22T07:17:15.915Z,4.10
2018-06-22T07:19:44.356Z,4.10
2018-06-22T07:22:13.883Z,3.40
2018-06-22T07:24:43.977Z,4.20
2018-06-22T07:27:13.439Z,3.90
2018-06-22T07:29:41.827Z,3.57
2018-06-22T07:32:11.046Z,3.67
2018-06-22T07:34:41.416Z,4.00
2018-06-22T07:37:10.402Z,3.53
2018-06-22T07:39:38.898Z,4.70
2018-06-22T07:42:08.122Z,4.83
2018-06-22T07:44:37.436Z,3.10
2018-06-22T07:47:07.439Z,3.70
2018-06-22T07:49:36.564Z,3.73
2018-06-22T07:52:07.453Z,4.70
2018-06-22T07:54:38.112Z,3.93
2018-06-22T07:57:06.609Z,4.50
2018-06-22T07:59:35.244Z,4.33
2018-06-22T08:02:03.788Z,3.23
2018-06-22T08:04:37.689Z,4.37
2018-06-22T08:07:08.048Z,3.33
2018-06-22T08:09:37.324Z,3.33
2018-06-22T08:12:06.615Z,3.30
2018-06-22T08:14:37.095Z,3.43
2018-06-22T08:17:06.454Z,2.90
2018-06-22T08:19:34.983Z,3.67
2018-06-22T08:22:04.449Z,3.80
2018-06-22T08:24:32.888Z,3.23
2018-06-22T08:27:02.006Z,4.43
2018-06-22T08:29:32.620Z,2.30
2018-06-22T08:32:05.423Z,3.30
2018-06-22T08:34:52.767Z,2.30
2018-06-22T08:38:14.631Z,3.83
2018-06-22T08:40:54.674Z,3.40
2018-06-22T08:43:35.652Z,3.27
2018-06-22T08:49:01.088Z,2.20
2018-06-22T08:51:31.236Z,2.70
2018-06-22T08:54:01.840Z,2.50
2018-06-22T08:56:31.578Z,3.07
2018-06-22T08:59:02.218Z,2.20
2018-06-22T09:01:34.284Z,2.77
2018-06-22T09:04:04.642Z,2.20
2018-06-22T09:06:46.594Z,2.13
2018-06-22T09:09:32.764Z,2.70
2018-06-22T09:12:12.761Z,1.97
2018-06-22T09:14:59.173Z,2.10
2018-06-22T09:20:41.495Z,3.27
2018-06-22T09:23:19.977Z,3.80
2018-06-22T09:26:04.907Z,2.77
2018-06-22T09:31:49.260Z,3.27
2018-06-22T09:34:24.888Z,3.37
2018-06-22T09:36:53.955Z,4.03
2018-06-22T09:39:34.923Z,3.67
2018-06-22T09:42:05.967Z,3.33
2018-06-22T09:44:40.819Z,4.00
2018-06-22T09:47:10.708Z,3.33
2018-06-22T09:49:44.199Z,3.47
2018-06-22T09:52:13.384Z,3.43
2018-06-22T09:54:43.661Z,2.73
2018-06-22T09:57:12.206Z,2.40
2018-06-22T09:59:41.192Z,2.73
2018-06-22T10:02:11.082Z,2.70
2018-06-22T10:04:39.533Z,2.43
2018-06-22T10:07:10.245Z,2.97
2018-06-22T10:09:39.063Z,2.43
2018-06-22T10:12:08.851Z,2.20
2018-06-22T10:14:37.704Z,2.10
2018-06-22T10:17:06.229Z,2.07
2018-06-22T10:19:35.433Z,1.60
2018-06-22T10:22:04.205Z,1.30
2018-06-22T10:24:33.109Z,1.50
2018-06-22T10:27:01.854Z,2.03
2018-06-22T10:29:30.665Z,1.80
2018-06-22T10:31:59.072Z,1.17
2018-06-22T10:34:29.180Z,1.57
2018-06-22T10:36:58.557Z,1.10
2018-06-22T10:39:28.578Z,1.00
2018-06-22T10:41:57.395Z,1.13
2018-06-22T10:44:28.118Z,1.00
2018-06-22T10:46:57.621Z,1.23
2018-06-22T10:49:26.088Z,0.80
2018-06-22T10:51:55.092Z,1.60
2018-06-22T10:54:28.104Z,1.50
2018-06-22T11:02:25.841Z,1.90
2018-06-22T11:04:58.404Z,1.67
2018-06-22T11:07:45.595Z,1.80
2018-06-22T11:10:22.389Z,1.57
2018-06-22T11:12:58.564Z,1.60
2018-06-22T11:15:30.218Z,1.17
2018-06-22T11:23:19.197Z,1.53
2018-06-22T11:25:59.851Z,1.57
2018-06-22T11:28:28.609Z,1.43
2018-06-22T11:30:59.877Z,1.60
2018-06-22T11:33:32.474Z,1.77
2018-06-22T11:36:06.601Z,2.70
2018-06-22T11:38:38.644Z,2.33
2018-06-22T11:41:09.414Z,2.10
2018-06-22T11:43:41.823Z,1.63
2018-06-22T11:46:11.140Z,1.40
2018-06-22T11:48:40.162Z,1.20
2018-06-22T11:51:11.902Z,1.20
2018-06-22T11:53:48.593Z,1.77
2018-06-22T11:56:19.378Z,1.93
2018-06-22T11:58:50.866Z,1.10
2018-06-22T12:01:25.576Z,2.10
2018-06-22T12:04:01.758Z,1.40
2018-06-22T12:06:37.704Z,2.00
2018-06-22T12:09:11.580Z,1.07
2018-06-22T12:11:40.555Z,1.13
2018-06-22T12:14:09.053Z,1.30
2018-06-22T12:16:38.055Z,1.63
2018-06-22T12:19:06.683Z,1.57
2018-06-22T12:21:35.517Z,1.37
2018-06-22T12:24:07.596Z,1.23
2018-06-22T12:26:36.488Z,1.70
2018-06-22T12:29:11.586Z,1.20
2018-06-22T12:31:43.593Z,1.10
2018-06-22T12:34:12.128Z,1.37
2018-06-22T12:36:41.290Z,1.10
2018-06-22T12:39:13.275Z,1.57
2018-06-22T12:41:43.576Z,1.40
2018-06-22T12:44:14.521Z,1.20
2018-06-22T12:46:45.526Z,1.23
2018-06-22T12:49:14.431Z,1.73
2018-06-22T12:51:42.905Z,1.90
2018-06-22T12:54:12.861Z,1.40
2018-06-22T12:56:42.652Z,1.00
2018-06-22T12:59:11.601Z,1.60
2018-06-22T13:01:40.580Z,1.60
2018-06-22T13:04:09.958Z,3.00
2018-06-22T13:06:39.567Z,1.43
2018-06-22T13:09:08.664Z,1.77
2018-06-22T13:11:41.315Z,1.00
2018-06-22T13:14:10.137Z,1.23
2018-06-22T13:16:40.514Z,1.00
2018-06-22T13:19:11.381Z,1.00
2018-06-22T13:21:50.632Z,2.43
2018-06-22T13:24:21.745Z,1.70
2018-06-22T13:26:51.769Z,1.23
2018-06-22T13:29:21.575Z,1.40
2018-06-22T13:31:50.249Z,0.70
2018-06-22T13:34:20.384Z,0.90
2018-06-22T13:36:49.053Z,1.10
2018-06-22T13:39:19.136Z,1.10
2018-06-22T13:41:48.587Z,1.10
2018-06-22T13:44:17.212Z,0.90
2018-06-22T13:46:46.353Z,0.97
2018-06-22T13:49:16.598Z,0.80
2018-06-22T13:51:47.386Z,1.00
2018-06-22T13:54:16.838Z,0.97
2018-06-22T13:56:45.396Z,1.30
2018-06-22T13:59:14.063Z,0.87
2018-06-22T14:01:44.906Z,0.90
2018-06-22T14:04:17.517Z,1.13
2018-06-22T14:06:50.327Z,1.10
2018-06-22T14:09:19.051Z,1.10
2018-06-22T14:11:48.290Z,0.80
2018-06-22T14:14:17.226Z,0.70
2018-06-22T14:16:47.285Z,1.13
2018-06-22T14:19:17.361Z,0.90
2018-06-22T14:21:48.214Z,1.50
2018-06-22T14:24:17.188Z,1.13
2018-06-22T14:26:46.011Z,1.53
2018-06-22T14:29:14.700Z,0.97
2018-06-22T14:31:43.597Z,1.00
2018-06-22T14:34:11.997Z,1.50
2018-06-22T14:36:41.299Z,1.60
2018-06-22T14:39:10.633Z,2.23
2018-06-22T14:41:40.185Z,1.57
2018-06-22T14:44:09.642Z,2.13
2018-06-22T14:46:39.225Z,1.40
2018-06-22T14:49:07.821Z,1.27
2018-06-22T14:51:43.321Z,2.27
2018-06-22T14:54:16.560Z,1.30
2018-06-22T14:56:50.345Z,1.80
2018-06-22T14:59:24.837Z,2.00
2018-06-22T15:01:58.289Z,1.20
2018-06-22T15:04:30.888Z,1.77
2018-06-22T15:07:03.578Z,1.30
2018-06-22T15:09:32.289Z,1.30
2018-06-22T15:12:01.553Z,1.37
2018-06-22T15:14:30.844Z,1.87
2018-06-22T15:17:01.312Z,1.53
2018-06-22T15:19:29.772Z,1.40
2018-06-22T15:21:58.333Z,1.80
2018-06-22T15:24:26.866Z,1.40
2018-06-22T15:26:55.648Z,1.70
2018-06-22T15:29:24.245Z,1.40
2018-06-22T15:31:53.034Z,1.30
2018-06-22T15:34:25.774Z,1.40
2018-06-22T15:36:58.442Z,1.77
2018-06-22T15:39:31.419Z,1.10
2018-06-22T15:42:04.492Z,1.87
2018-06-22T15:44:38.032Z,1.87
2018-06-22T15:47:10.702Z,2.30
2018-06-22T15:49:43.355Z,2.17
2018-06-22T15:52:16.077Z,2.20
2018-06-22T15:54:48.831Z,2.50
2018-06-22T15:57:17.540Z,2.10
2018-06-22T15:59:46.497Z,2.00
2018-06-22T16:02:19.190Z,2.10
2018-06-22T16:04:47.942Z,1.40
2018-06-22T16:07:17.161Z,1.77
2018-06-22T16:09:49.704Z,1.30
2018-06-22T16:12:22.435Z,1.60
2018-06-22T16:14:55.053Z,1.40
2018-06-22T16:17:27.794Z,2.20
2018-06-22T16:20:01.567Z,1.80
2018-06-22T16:22:34.048Z,1.60
2018-06-22T16:25:08.283Z,1.80
2018-06-22T16:27:42.171Z,2.00
2018-06-22T16:30:11.907Z,2.13
2018-06-22T16:32:40.675Z,1.50
2018-06-22T16:35:10.364Z,2.00
2018-06-22T16:37:39.406Z,2.30
2018-06-22T16:40:07.791Z,2.10
2018-06-22T16:42:36.597Z,2.70
2018-06-22T16:45:06.751Z,1.60
2018-06-22T16:47:35.291Z,1.73
2018-06-22T16:50:07.370Z,1.80
2018-06-22T16:52:37.128Z,1.60
2018-06-22T16:55:08.467Z,2.53
2018-06-22T16:57:38.189Z,2.07
2018-06-22T17:00:08.726Z,1.43
2018-06-22T17:02:38.970Z,2.97
2018-06-22T17:05:10.601Z,1.80
2018-06-22T17:07:43.521Z,1.60
2018-06-22T17:10:17.716Z,1.97
2018-06-22T17:12:51.619Z,1.87
2018-06-22T17:15:25.172Z,2.17
2018-06-22T17:17:57.705Z,2.00
2018-06-22T17:20:26.780Z,1.80
2018-06-22T17:22:55.486Z,2.40
2018-06-22T17:25:23.941Z,2.27
2018-06-22T17:27:53.315Z,2.37
2018-06-22T17:30:21.975Z,2.53
2018-06-22T17:32:50.665Z,1.97
2018-06-22T17:35:24.668Z,3.00
2018-06-22T17:37:55.058Z,2.33
2018-06-22T17:43:01.764Z,1.83
2018-06-22T17:45:34.680Z,2.10
2018-06-22T17:48:05.397Z,2.07
2018-06-22T17:50:39.671Z,2.00
2018-06-22T17:53:14.260Z,2.27
2018-06-22T17:55:55.036Z,1.57
2018-06-22T18:01:12.569Z,1.83
2018-06-22T18:03:49.052Z,1.47
2018-06-22T18:08:58.744Z,1.70
2018-06-22T18:11:33.819Z,1.40
2018-06-22T18:14:07.259Z,3.07
2018-06-22T18:16:41.526Z,1.60
2018-06-22T18:19:18.866Z,1.83
2018-06-22T18:21:51.532Z,1.47
2018-06-22T18:24:21.067Z,1.63
2018-06-22T18:26:53.434Z,2.03
2018-06-22T18:29:25.277Z,2.00
2018-06-22T18:31:56.349Z,2.23
2018-06-22T18:34:28.571Z,2.03
2018-06-22T18:37:04.754Z,2.00
2018-06-22T18:39:36.631Z,1.50
2018-06-22T18:42:06.938Z,2.37
2018-06-22T18:44:40.585Z,2.23
2018-06-22T18:47:11.571Z,2.20
2018-06-22T18:49:43.979Z,2.07
2018-06-22T18:52:16.765Z,2.53
2018-06-22T18:54:54.095Z,2.30
2018-06-22T18:57:28.936Z,2.37
2018-06-22T19:00:03.173Z,2.60
2018-06-22T19:02:37.153Z,2.30
2018-06-22T19:05:08.011Z,2.20
2018-06-22T19:07:49.893Z,1.90
2018-06-22T19:10:26.412Z,2.43
2018-06-22T19:15:44.315Z,1.83
2018-06-22T19:18:17.698Z,1.90
2018-06-22T19:23:24.401Z,2.20
2018-06-22T19:25:55.335Z,2.50
2018-06-22T19:28:24.178Z,1.87
2018-06-22T19:30:54.085Z,2.27
2018-06-22T19:33:24.181Z,1.87
2018-06-22T19:35:53.601Z,2.20
2018-06-22T19:38:25.021Z,2.50
2018-06-22T19:40:54.253Z,2.27
2018-06-22T19:43:27.123Z,3.10
2018-06-22T19:46:00.758Z,2.10
2018-06-22T19:48:34.068Z,2.30
2018-06-22T19:51:07.053Z,3.40
2018-06-22T19:53:40.389Z,3.17
2018-06-22T19:56:09.239Z,2.80
2018-06-22T19:58:37.734Z,2.53
2018-06-22T20:01:06.262Z,1.90
2018-06-22T20:03:34.718Z,2.80
2018-06-22T20:06:03.194Z,2.63
2018-06-22T20:08:32.194Z,2.60
2018-06-22T20:11:00.778Z,2.87
2018-06-22T20:13:29.217Z,2.20
2018-06-22T20:15:59.275Z,3.03
2018-06-22T20:18:27.871Z,2.93
2018-06-22T20:20:56.345Z,2.67
2018-06-22T20:23:27.375Z,3.23
2018-06-22T20:25:55.784Z,3.50
2018-06-22T20:28:25.336Z,3.40
2018-06-22T20:30:54.980Z,3.57
2018-06-22T20:33:23.688Z,2.93
2018-06-22T20:35:57.079Z,3.40
2018-06-22T20:38:30.096Z,2.83
2018-06-22T20:41:02.781Z,2.73
2018-06-22T20:43:39.283Z,3.50
2018-06-22T20:46:07.785Z,3.30
2018-06-22T20:48:40.672Z,3.77
2018-06-22T20:51:09.617Z,3.30
2018-06-22T20:56:18.124Z,4.27
2018-06-22T20:58:48.803Z,3.87
2018-06-22T21:01:17.343Z,3.10
2018-06-22T21:03:46.210Z,3.37
2018-06-22T21:06:14.667Z,3.70
2018-06-22T21:08:43.077Z,4.17
2018-06-22T21:11:11.727Z,3.83
2018-06-22T21:13:41.163Z,4.10
2018-06-22T21:16:11.936Z,3.80
2018-06-22T21:18:40.932Z,3.23
2018-06-22T21:21:13.579Z,4.37
2018-06-22T21:23:42.457Z,4.33
2018-06-22T21:26:10.854Z,3.60
2018-06-22T21:28:43.488Z,4.03
2018-06-22T21:31:16.147Z,4.23
2018-06-22T21:33:50.683Z,4.07
2018-06-22T21:36:24.634Z,4.03
2018-06-22T21:38:59.476Z,4.00
2018-06-22T21:41:28.916Z,3.87
2018-06-22T21:43:59.031Z,6.40
2018-06-22T21:46:29.441Z,6.77
2018-06-22T21:48:57.900Z,8.03
2018-06-22T21:51:28.104Z,10.03
2018-06-22T21:53:56.972Z,11.10
2018-06-22T21:56:31.194Z,9.30
2018-06-22T21:59:02.050Z,6.80
2018-06-22T22:01:31.485Z,6.60
2018-06-22T22:04:02.341Z,7.80
2018-06-22T22:06:31.800Z,5.40
2018-06-22T22:09:03.447Z,5.20
2018-06-22T22:11:36.320Z,5.40
2018-06-22T22:14:07.429Z,5.37
2018-06-22T22:16:36.696Z,4.80
2018-06-22T22:19:05.413Z,5.87
2018-06-22T22:21:37.332Z,5.23
2018-06-22T22:24:06.375Z,5.10
2018-06-22T22:26:34.950Z,6.23
2018-06-22T22:29:04.287Z,5.80
2018-06-22T22:31:34.120Z,5.93
2018-06-22T22:34:02.558Z,4.90
2018-06-22T22:36:31.180Z,7.03
2018-06-22T22:39:00.044Z,5.13
2018-06-22T22:41:29.026Z,5.03
2018-06-22T22:43:57.754Z,5.33
2018-06-22T22:46:27.311Z,4.50
2018-06-22T22:48:55.861Z,5.10
2018-06-22T22:51:24.830Z,4.20
2018-06-22T22:53:53.590Z,4.63
2018-06-22T22:56:22.571Z,5.13
2018-06-22T22:58:51.498Z,4.10
2018-06-22T23:01:20.691Z,3.77
2018-06-22T23:03:49.274Z,5.90
2018-06-22T23:06:17.722Z,4.63
2018-06-22T23:08:46.307Z,4.60
2018-06-22T23:11:14.789Z,5.13
2018-06-22T23:13:43.180Z,5.10
2018-06-22T23:16:11.709Z,4.80
2018-06-22T23:18:40.161Z,4.77
2018-06-22T23:21:09.640Z,3.77
2018-06-22T23:23:39.926Z,4.63
2018-06-22T23:26:08.698Z,4.70
2018-06-22T23:28:37.193Z,4.20
2018-06-22T23:31:06.697Z,5.00
2018-06-22T23:33:35.325Z,5.80
2018-06-22T23:36:05.739Z,4.30
2018-06-22T23:38:34.629Z,4.50
2018-06-22T23:41:03.729Z,4.67
2018-06-22T23:43:33.150Z,4.80
2018-06-22T23:46:02.006Z,4.77
2018-06-22T23:48:30.758Z,4.23
2018-06-22T23:51:00.118Z,3.93
2018-06-22T23:53:28.728Z,4.20
2018-06-22T23:55:57.161Z,4.70
2018-06-22T23:58:25.600Z,3.90
